Time;durP1;ratioP1;P1;durP2;ratioP2;P2;SDS_P1;SDS_P2;PMS_P1;PMS_P2;Temp;Humidity;BMP_temperature;BMP_pressure;BME280_temperature;BME280_humidity;BME280_pressure;Samples;Min_cycle;Max_cycle;Signal;HPM_P1;HPM_P2
2022/01/12 00:00:53;;;;;;;9.07;8.13;;;;;;;1.79;69.90;98152.19;5039698;28;20337;-69
2022/01/12 00:03:20;;;;;;;9.77;8.33;;;;;;;1.72;70.69;98158.53;5039511;28;20221;-69
2022/01/12 00:05:46;;;;;;;8.83;7.90;;;;;;;1.71;71.15;98156.81;5057054;28;20221;-70
2022/01/12 00:08:13;;;;;;;9.67;8.67;;;;;;;1.76;71.51;98148.84;5060811;28;20224;-70
2022/01/12 00:10:39;;;;;;;8.97;8.07;;;;;;;1.80;71.18;98147.84;5060994;28;20206;-69
2022/01/12 00:13:06;;;;;;;11.03;8.53;;;;;;;1.74;71.57;98150.63;5061573;28;20209;-69
2022/01/12 00:15:34;;;;;;;9.67;8.67;;;;;;;1.75;71.70;98142.78;5060865;28;20213;-68
2022/01/12 00:18:00;;;;;;;11.00;8.50;;;;;;;1.73;71.34;98130.69;5067603;28;20201;-66
2022/01/12 00:20:27;;;;;;;9.43;8.53;;;;;;;1.65;71.29;98138.78;5078862;28;20214;-70
2022/01/12 00:22:53;;;;;;;9.07;8.17;;;;;;;1.62;72.10;98138.91;5079068;28;20210;-69
2022/01/12 00:25:27;;;;;;;8.80;7.87;;;;;;;1.65;72.22;98133.56;5079727;28;20208;-68
2022/01/12 00:33:24;;;;;;;9.47;8.47;;;;;;;1.45;72.32;98142.03;5057934;28;20208;-70
2022/01/12 00:35:52;;;;;;;9.93;8.93;;;;;;;1.48;72.12;98147.19;5058161;28;20219;-69
2022/01/12 00:38:20;;;;;;;11.47;9.30;;;;;;;1.46;72.31;98137.69;5057870;28;20241;-68
2022/01/12 00:40:49;;;;;;;10.10;9.10;;;;;;;1.41;72.63;98137.88;5058067;28;20220;-69
2022/01/12 00:43:16;;;;;;;10.07;9.07;;;;;;;1.32;72.19;98135.53;5057791;28;20238;-70
2022/01/12 00:45:46;;;;;;;11.17;9.93;;;;;;;1.34;71.85;98144.19;5060740;28;20213;-70
2022/01/12 00:48:13;;;;;;;10.60;9.47;;;;;;;1.38;72.35;98143.16;5072117;28;20258;-70
2022/01/12 00:50:40;;;;;;;10.00;8.87;;;;;;;1.47;72.41;98140.25;5077633;28;20213;-69
2022/01/12 00:53:07;;;;;;;10.20;9.17;;;;;;;1.39;72.28;98144.00;5063100;28;20214;-70
2022/01/12 00:55:34;;;;;;;10.57;9.37;;;;;;;1.38;72.98;98144.94;5053442;28;20236;-70
2022/01/12 00:58:01;;;;;;;11.67;9.27;;;;;;;1.35;72.96;98147.59;5060411;28;20216;-69
2022/01/12 01:00:28;;;;;;;11.27;9.37;;;;;;;1.39;72.01;98139.66;5060042;28;20208;-68
2022/01/12 01:02:56;;;;;;;9.80;8.80;;;;;;;1.35;72.04;98140.66;5052613;28;20218;-69
2022/01/12 01:05:24;;;;;;;10.03;9.03;;;;;;;1.32;72.44;98142.50;5051952;28;20214;-70
2022/01/12 01:07:52;;;;;;;10.40;9.27;;;;;;;1.30;71.60;98134.75;5057827;28;20307;-69
2022/01/12 01:10:27;;;;;;;10.33;8.93;;;;;;;1.29;70.99;98135.66;5058077;28;20202;-69
2022/01/12 01:12:54;;;;;;;9.77;8.77;;;;;;;1.26;71.28;98133.13;5056847;28;20523;-68
2022/01/12 01:15:28;;;;;;;11.30;9.37;;;;;;;1.29;71.42;98135.66;5055468;28;20201;-69
2022/01/12 01:26:09;;;;;;;10.10;9.10;;;;;;;1.29;71.91;98134.78;5070066;28;20238;-68
2022/01/12 01:28:36;;;;;;;10.07;8.60;;;;;;;1.28;71.81;98140.88;5076125;28;20209;-69
2022/01/12 01:31:04;;;;;;;9.80;8.80;;;;;;;1.31;71.42;98146.03;5074845;28;20237;-70
2022/01/12 01:33:33;;;;;;;9.77;8.77;;;;;;;1.25;71.52;98149.66;5074884;28;20194;-70
2022/01/12 01:35:59;;;;;;;9.70;8.77;;;;;;;1.28;71.98;98148.72;5074003;28;20202;-71
2022/01/12 01:38:26;;;;;;;10.57;9.50;;;;;;;1.34;72.74;98148.53;5053147;28;20199;-70
2022/01/12 01:40:52;;;;;;;10.23;9.23;;;;;;;1.32;71.73;98150.31;5045242;28;20203;-68
2022/01/12 01:43:26;;;;;;;9.70;8.70;;;;;;;1.26;71.87;98158.34;5054674;28;20229;-69
2022/01/12 01:54:07;;;;;;;9.57;8.57;;;;;;;1.24;71.82;98152.34;5060701;28;20241;-70
2022/01/12 01:56:33;;;;;;;10.23;9.10;;;;;;;1.23;72.40;98151.50;5056136;28;20278;-70
2022/01/12 01:59:00;;;;;;;10.90;9.73;;;;;;;1.23;72.73;98145.41;5056170;28;20201;-69
2022/01/12 02:01:26;;;;;;;11.40;9.33;;;;;;;1.17;72.39;98140.41;5059433;28;20581;-69
2022/01/12 02:03:58;;;;;;;11.37;9.90;;;;;;;1.27;72.33;98144.41;5059674;28;20229;-70
2022/01/12 02:06:24;;;;;;;10.00;9.00;;;;;;;1.26;72.89;98146.16;5058341;28;20220;-70
2022/01/12 02:08:51;;;;;;;11.17;9.80;;;;;;;1.21;73.10;98148.06;5057875;28;20212;-69
2022/01/12 02:11:17;;;;;;;10.03;9.03;;;;;;;1.13;73.53;98146.63;5051723;28;20527;-69
2022/01/12 02:13:44;;;;;;;10.03;8.87;;;;;;;1.19;72.67;98139.44;5055716;28;20204;-68
2022/01/12 02:16:10;;;;;;;9.90;8.90;;;;;;;1.18;71.72;98152.50;5044398;28;20205;-69
2022/01/12 02:19:03;;;;;;;9.10;8.20;;;;;;;1.12;71.71;98158.78;5037806;28;20671;-70
2022/01/12 02:35:20;;;;;;;10.37;9.27;;;;;;;1.00;73.97;98165.22;5055575;28;20249;-68
2022/01/12 02:40:38;;;;;;;11.23;10.03;;;;;;;1.02;74.10;98173.00;5053162;28;20242;-70
2022/01/12 02:43:12;;;;;;;11.90;10.60;;;;;;;0.98;73.76;98167.03;5055343;28;20659;-70
2022/01/12 02:51:15;;;;;;;11.63;10.20;;;;;;;0.82;73.47;98178.81;5075733;28;20222;-70
2022/01/12 02:53:43;;;;;;;11.53;9.60;;;;;;;0.84;73.42;98179.63;5075886;28;20203;-70
2022/01/12 02:56:11;;;;;;;12.40;10.53;;;;;;;0.76;73.18;98175.53;5066401;28;20219;-69
2022/01/12 02:58:38;;;;;;;10.80;9.70;;;;;;;0.78;73.60;98179.78;5055526;28;20200;-69
2022/01/12 03:03:52;;;;;;;11.40;10.30;;;;;;;0.75;73.99;98179.88;5049727;28;20307;-69
2022/01/12 03:06:22;;;;;;;12.07;10.70;;;;;;;0.72;74.62;98185.19;5055852;28;20227;-69
2022/01/12 03:08:52;;;;;;;11.37;10.17;;;;;;;0.75;74.52;98179.88;5053782;28;20296;-69
2022/01/12 03:11:20;;;;;;;11.93;9.60;;;;;;;0.74;74.39;98180.81;5049067;28;20217;-70
2022/01/12 03:13:47;;;;;;;12.07;9.27;;;;;;;0.78;74.10;98174.59;5054988;28;20207;-69
2022/01/12 03:16:15;;;;;;;10.03;8.83;;;;;;;0.69;74.30;98184.44;5045684;28;20219;-69
2022/01/12 03:18:42;;;;;;;9.77;8.70;;;;;;;0.71;74.65;98174.84;5034903;28;20216;-69
2022/01/12 03:21:09;;;;;;;9.67;8.67;;;;;;;0.75;74.87;98179.03;5036361;28;20644;-69
2022/01/12 03:23:36;;;;;;;11.87;9.70;;;;;;;0.68;74.61;98178.38;5051830;28;20238;-69
2022/01/12 03:26:03;;;;;;;11.13;9.97;;;;;;;0.67;75.07;98184.50;5044643;28;20279;-69
2022/01/12 03:28:30;;;;;;;11.87;9.73;;;;;;;0.65;75.98;98188.03;5054725;28;20208;-69
2022/01/12 03:31:03;;;;;;;10.57;9.47;;;;;;;0.61;75.64;98199.41;5055219;28;20538;-69
2022/01/12 03:33:54;;;;;;;11.40;9.87;;;;;;;0.64;75.78;98207.97;5054121;28;20612;-68
2022/01/12 03:36:29;;;;;;;10.73;9.63;;;;;;;0.64;75.58;98209.75;5058010;28;20207;-69
2022/01/12 03:38:58;;;;;;;10.30;9.17;;;;;;;0.60;75.52;98206.41;5053181;28;20544;-70
2022/01/12 03:41:27;;;;;;;10.27;9.23;;;;;;;0.71;74.90;98214.72;5058369;28;20210;-67
2022/01/12 03:43:54;;;;;;;9.53;8.53;;;;;;;0.64;75.06;98215.78;5056839;28;20226;-69
2022/01/12 03:46:24;;;;;;;10.33;9.23;;;;;;;0.67;74.85;98220.09;5058285;28;20204;-70
2022/01/12 03:48:50;;;;;;;10.80;9.80;;;;;;;0.68;75.07;98221.75;5058402;28;20223;-70
2022/01/12 03:51:17;;;;;;;10.07;9.07;;;;;;;0.71;75.31;98222.53;5058887;28;20214;-69
2022/01/12 03:53:43;;;;;;;9.97;9.03;;;;;;;0.69;74.71;98221.75;5058126;28;20231;-68
2022/01/12 03:56:10;;;;;;;12.03;9.53;;;;;;;0.67;74.67;98215.72;5058095;28;20223;-70
2022/01/12 03:58:38;;;;;;;10.37;9.33;;;;;;;0.69;74.34;98213.94;5058096;28;20642;-70
2022/01/12 04:01:05;;;;;;;11.17;9.43;;;;;;;0.69;74.92;98211.31;5041727;28;20252;-69
2022/01/12 04:03:37;;;;;;;13.20;9.90;;;;;;;0.78;74.85;98225.84;5038555;28;20215;-68
2022/01/12 04:08:47;;;;;;;10.87;9.67;;;;;;;0.80;74.74;98216.22;5044377;28;20572;-69
2022/01/12 04:11:14;;;;;;;12.97;10.40;;;;;;;0.77;73.82;98217.16;5058110;28;20237;-68
2022/01/12 04:13:42;;;;;;;11.57;9.93;;;;;;;0.74;74.15;98212.06;5056874;28;20582;-70
2022/01/12 04:16:08;;;;;;;10.13;9.13;;;;;;;0.74;74.40;98214.66;5047719;28;20262;-70
2022/01/12 04:18:36;;;;;;;10.87;9.77;;;;;;;0.69;73.61;98202.66;5039003;28;20215;-69
2022/01/12 04:21:05;;;;;;;12.03;10.13;;;;;;;0.71;74.13;98204.31;5039435;28;20212;-69
2022/01/12 04:23:32;;;;;;;11.70;10.50;;;;;;;0.65;73.81;98209.69;5059436;28;20207;-69
2022/01/12 04:26:00;;;;;;;10.70;9.60;;;;;;;0.69;73.61;98208.72;5059119;28;20311;-69
2022/01/12 04:28:28;;;;;;;11.43;10.23;;;;;;;0.69;73.24;98211.31;5056212;28;20208;-69
2022/01/12 04:30:57;;;;;;;11.47;10.27;;;;;;;0.64;74.00;98202.78;5059576;28;20222;-70
2022/01/12 04:33:24;;;;;;;10.30;9.30;;;;;;;0.65;74.30;98216.66;5059192;28;20607;-70
2022/01/12 04:35:54;;;;;;;10.20;9.20;;;;;;;0.62;73.72;98215.00;5060141;28;20700;-69
2022/01/12 04:38:23;;;;;;;10.67;9.37;;;;;;;0.61;73.24;98223.69;5061337;28;20234;-70
2022/01/12 04:40:50;;;;;;;9.87;8.83;;;;;;;0.66;73.65;98220.97;5062163;28;20215;-69
2022/01/12 04:43:18;;;;;;;10.50;9.40;;;;;;;0.67;73.47;98225.28;5075303;28;20203;-70
2022/01/12 04:46:08;;;;;;;10.07;8.90;;;;;;;0.63;72.89;98234.09;5075350;28;20292;-71
2022/01/12 04:48:48;;;;;;;10.53;9.53;;;;;;;0.64;72.64;98234.03;5075205;28;20218;-69
2022/01/12 04:51:15;;;;;;;10.13;9.13;;;;;;;0.65;73.18;98240.09;5058909;28;20212;-70
2022/01/12 04:53:41;;;;;;;10.03;9.03;;;;;;;0.63;72.36;98231.47;5058110;28;20213;-70
2022/01/12 04:56:08;;;;;;;9.90;8.90;;;;;;;0.70;72.42;98238.22;5061262;28;20277;-70
2022/01/12 04:58:34;;;;;;;9.97;8.97;;;;;;;0.64;71.54;98238.41;5066344;28;20208;-71
2022/01/12 05:01:04;;;;;;;10.23;9.17;;;;;;;0.73;71.72;98248.53;5072508;28;20251;-69
2022/01/12 05:09:13;;;;;;;10.30;9.03;;;;;;;0.70;71.81;98265.09;5070508;28;20210;-69
2022/01/12 05:14:25;;;;;;;10.57;9.47;;;;;;;0.70;72.05;98266.84;5062531;28;20202;-68
2022/01/12 05:16:51;;;;;;;10.60;9.50;;;;;;;0.68;72.40;98264.28;5066548;28;20216;-69
2022/01/12 05:19:18;;;;;;;11.00;9.20;;;;;;;0.76;72.32;98259.72;5046621;28;20230;-69
2022/01/12 05:21:46;;;;;;;10.47;9.30;;;;;;;0.76;72.13;98259.72;5053618;28;20211;-69
2022/01/12 05:24:12;;;;;;;10.77;9.67;;;;;;;0.75;72.04;98260.59;5065880;28;20262;-70
2022/01/12 05:26:40;;;;;;;11.23;10.13;;;;;;;0.65;72.07;98266.97;5065202;28;20212;-68
2022/01/12 05:29:06;;;;;;;13.67;10.53;;;;;;;0.65;72.33;98266.97;5052865;28;20204;-68
2022/01/12 05:31:33;;;;;;;10.80;9.67;;;;;;;0.64;72.21;98270.47;5068865;28;20214;-68
2022/01/12 05:34:01;;;;;;;11.30;10.10;;;;;;;0.63;71.96;98279.19;5065955;28;20235;-69
2022/01/12 05:36:30;;;;;;;10.53;9.43;;;;;;;0.59;71.38;98276.72;5068595;28;20213;-71
2022/01/12 05:38:58;;;;;;;10.13;9.13;;;;;;;0.64;71.47;98274.84;5070382;28;20230;-69
2022/01/12 05:41:24;;;;;;;10.90;9.80;;;;;;;0.63;71.68;98263.56;5063627;28;20223;-69
2022/01/12 05:43:51;;;;;;;10.87;9.73;;;;;;;0.70;71.45;98267.72;5062854;28;20632;-69
2022/01/12 05:46:22;;;;;;;11.53;10.33;;;;;;;0.67;71.54;98275.63;5063260;28;20297;-68
2022/01/12 05:51:33;;;;;;;10.93;9.83;;;;;;;0.58;71.59;98272.38;5048766;28;20242;-69
2022/01/12 05:54:01;;;;;;;12.77;10.40;;;;;;;0.61;71.91;98278.38;5042214;28;20208;-68
2022/01/12 05:56:27;;;;;;;12.63;10.53;;;;;;;0.64;72.74;98280.88;5040662;28;20225;-69
2022/01/12 05:58:54;;;;;;;11.60;10.17;;;;;;;0.66;71.96;98283.47;5040515;28;20215;-69
2022/01/12 06:01:21;;;;;;;10.73;9.63;;;;;;;0.50;71.32;98285.59;5046347;28;20248;-69
2022/01/12 06:03:47;;;;;;;12.60;11.27;;;;;;;0.49;71.47;98297.81;5059830;28;20204;-69
2022/01/12 06:06:14;;;;;;;11.30;10.17;;;;;;;0.57;71.33;98310.59;5053687;28;20328;-69
2022/01/12 06:08:40;;;;;;;11.80;10.57;;;;;;;0.60;72.15;98318.34;5054543;28;20210;-69
2022/01/12 06:11:08;;;;;;;12.10;10.80;;;;;;;0.56;71.79;98321.06;5050506;28;20268;-69
2022/01/12 06:13:35;;;;;;;12.23;10.57;;;;;;;0.45;71.74;98326.53;5047999;28;20213;-68
2022/01/12 06:16:01;;;;;;;12.07;10.87;;;;;;;0.44;71.96;98330.03;5054012;28;20215;-70
2022/01/12 06:18:28;;;;;;;12.00;10.80;;;;;;;0.50;71.81;98341.13;5051322;28;20212;-69
2022/01/12 06:20:54;;;;;;;12.03;10.83;;;;;;;0.42;72.09;98342.25;5048349;28;20220;-70
2022/01/12 06:23:21;;;;;;;15.07;11.63;;;;;;;0.50;71.93;98345.47;5059269;28;20207;-69
2022/01/12 06:25:47;;;;;;;13.77;11.50;;;;;;;0.53;72.01;98354.97;5044155;28;20228;-70
2022/01/12 06:28:34;;;;;;;14.07;11.50;;;;;;;0.48;72.45;98373.31;5054844;28;20210;-69
2022/01/12 06:31:14;;;;;;;12.07;10.67;;;;;;;0.53;71.94;98371.44;5060896;28;20222;-68
2022/01/12 06:33:42;;;;;;;12.27;10.97;;;;;;;0.54;72.64;98357.53;5058874;28;20259;-70
2022/01/12 06:36:11;;;;;;;12.90;10.80;;;;;;;0.62;72.27;98358.19;5058292;28;20506;-67
2022/01/12 06:38:38;;;;;;;11.67;10.47;;;;;;;0.59;72.38;98360.88;5058184;28;20214;-70
2022/01/12 06:41:05;;;;;;;13.07;11.27;;;;;;;0.59;72.77;98366.06;5059722;28;20218;-70
2022/01/12 06:43:32;;;;;;;14.20;11.03;;;;;;;0.61;72.55;98355.59;5063419;28;20207;-69
2022/01/12 06:45:59;;;;;;;12.10;10.63;;;;;;;0.59;72.91;98360.88;5063114;28;20247;-69
2022/01/12 06:48:26;;;;;;;12.17;10.87;;;;;;;0.60;72.05;98357.38;5056047;28;20292;-69
2022/01/12 06:50:52;;;;;;;19.10;14.80;;;;;;;0.53;71.51;98361.03;5053715;28;20200;-69
2022/01/12 06:53:19;;;;;;;12.03;10.83;;;;;;;0.46;71.50;98368.13;5060978;28;20205;-69
2022/01/12 06:55:45;;;;;;;11.03;9.93;;;;;;;0.48;71.83;98368.09;5062338;28;20211;-69
2022/01/12 06:58:11;;;;;;;12.17;10.33;;;;;;;0.50;71.07;98372.38;5059829;28;20218;-70
2022/01/12 07:00:40;;;;;;;10.60;9.50;;;;;;;0.50;70.70;98381.91;5047900;28;20216;-69
2022/01/12 07:03:07;;;;;;;10.97;9.47;;;;;;;0.46;71.07;98395.94;5058409;28;20207;-69
2022/01/12 07:05:33;;;;;;;10.73;9.63;;;;;;;0.50;71.52;98406.19;5056901;28;20226;-70
2022/01/12 07:07:59;;;;;;;10.70;9.60;;;;;;;0.56;71.36;98396.53;5064667;28;20203;-70
2022/01/12 07:10:26;;;;;;;11.90;9.33;;;;;;;0.64;72.10;98387.63;5074220;28;20195;-69
2022/01/12 07:12:53;;;;;;;14.33;9.87;;;;;;;0.98;76.19;98385.84;5067856;28;20219;-69
2022/01/12 07:15:19;;;;;;;14.03;10.07;;;;;;;1.14;71.97;98390.59;5057560;28;20208;-69
2022/01/12 07:17:48;;;;;;;13.20;10.20;;;;;;;1.15;71.18;98395.78;5065584;28;20649;-67
2022/01/12 07:20:15;;;;;;;11.50;10.30;;;;;;;1.13;70.94;98413.22;5058601;28;20530;-69
2022/01/12 07:22:42;;;;;;;10.27;8.53;;;;;;;1.46;71.62;98411.41;5055823;28;20230;-68
2022/01/12 07:25:09;;;;;;;9.93;8.93;;;;;;;1.26;70.00;98417.19;5047952;28;20237;-68
2022/01/12 07:27:35;;;;;;;11.40;10.17;;;;;;;1.41;71.08;98410.69;5055003;28;20217;-69
2022/01/12 07:30:02;;;;;;;10.27;9.13;;;;;;;1.22;69.01;98404.28;5043280;28;20206;-70
2022/01/12 07:32:29;;;;;;;10.10;9.00;;;;;;;0.82;68.11;98410.56;5040251;28;20210;-70
2022/01/12 07:34:56;;;;;;;9.77;8.77;;;;;;;0.75;68.59;98408.16;5055645;28;20280;-70
2022/01/12 07:37:23;;;;;;;12.47;9.63;;;;;;;0.76;68.58;98410.75;5062089;28;20208;-71
2022/01/12 07:39:49;;;;;;;10.17;8.40;;;;;;;0.72;68.78;98406.50;5062392;28;20213;-71
2022/01/12 07:42:16;;;;;;;9.60;8.60;;;;;;;0.65;69.10;98417.97;5058379;28;20229;-71
2022/01/12 07:44:43;;;;;;;9.57;8.67;;;;;;;0.59;69.02;98433.75;5058199;28;20207;-69
2022/01/12 07:47:09;;;;;;;10.63;9.50;;;;;;;0.41;68.79;98439.41;5057982;28;20200;-70
2022/01/12 07:49:36;;;;;;;11.40;9.53;;;;;;;0.43;69.76;98448.03;5060808;28;20212;-69
2022/01/12 07:52:05;;;;;;;10.40;9.30;;;;;;;0.43;69.90;98445.44;5060125;28;20199;-71
2022/01/12 07:54:31;;;;;;;10.30;8.87;;;;;;;0.31;69.84;98443.13;5060306;28;20223;-69
2022/01/12 07:56:58;;;;;;;10.17;9.17;;;;;;;0.34;70.34;98459.53;5060310;28;20207;-69
2022/01/12 07:59:25;;;;;;;11.50;9.70;;;;;;;0.43;70.33;98458.44;5057024;28;20208;-69
2022/01/12 08:01:51;;;;;;;10.63;9.53;;;;;;;0.46;70.00;98455.78;5056774;28;20244;-69
2022/01/12 08:04:18;;;;;;;11.07;9.97;;;;;;;0.41;70.22;98452.44;5055356;28;20204;-70
2022/01/12 08:06:44;;;;;;;11.90;10.70;;;;;;;0.48;70.93;98452.25;5039021;28;20519;-68
2022/01/12 08:09:12;;;;;;;11.33;9.97;;;;;;;0.54;70.59;98460.78;5052929;28;20208;-69
2022/01/12 08:11:39;;;;;;;13.40;10.93;;;;;;;0.51;70.50;98464.31;5055851;28;20222;-69
2022/01/12 08:14:05;;;;;;;12.60;10.13;;;;;;;0.64;70.24;98465.72;5045774;28;20235;-70
2022/01/12 08:16:32;;;;;;;13.07;10.83;;;;;;;0.54;70.37;98460.78;5059541;28;20215;-70
2022/01/12 08:18:58;;;;;;;11.50;10.30;;;;;;;0.59;70.21;98465.00;5058783;28;20219;-69
2022/01/12 08:21:27;;;;;;;12.33;11.03;;;;;;;0.58;70.46;98467.63;5058466;28;20276;-69
2022/01/12 08:23:53;;;;;;;12.23;10.93;;;;;;;0.60;70.03;98476.28;5053193;28;20213;-69
2022/01/12 08:26:21;;;;;;;12.70;11.20;;;;;;;0.65;70.59;98470.03;5037919;28;20245;-70
2022/01/12 08:28:48;;;;;;;12.27;10.97;;;;;;;0.66;70.64;98471.78;5038165;28;20224;-69
2022/01/12 08:31:14;;;;;;;11.97;10.77;;;;;;;0.66;71.31;98471.78;5038333;28;20299;-69
2022/01/12 08:33:41;;;;;;;12.87;11.43;;;;;;;0.70;70.29;98473.41;5043198;28;20196;-69
2022/01/12 08:36:07;;;;;;;13.13;11.70;;;;;;;0.61;70.46;98472.75;5057980;28;20558;-70
2022/01/12 08:38:34;;;;;;;12.60;10.77;;;;;;;0.62;70.79;98472.72;5057768;28;20207;-69
2022/01/12 08:41:01;;;;;;;14.10;12.30;;;;;;;0.65;70.40;98470.03;5057276;28;20210;-70
2022/01/12 08:43:28;;;;;;;17.93;15.43;;;;;;;0.66;70.67;98471.78;5061661;28;20204;-69
2022/01/12 08:45:55;;;;;;;13.17;11.77;;;;;;;0.73;70.54;98477.66;5056556;28;20242;-70
2022/01/12 08:48:22;;;;;;;12.03;10.83;;;;;;;0.63;69.78;98484.88;5050476;28;20208;-70
2022/01/12 08:50:49;;;;;;;14.13;12.07;;;;;;;0.62;70.60;98488.34;5045146;28;20203;-70
2022/01/12 08:53:15;;;;;;;12.57;11.27;;;;;;;0.65;70.00;98490.88;5037081;28;20216;-70
2022/01/12 08:55:42;;;;;;;14.53;11.77;;;;;;;0.65;69.63;98510.84;5037491;28;20510;-70
2022/01/12 08:58:08;;;;;;;12.53;11.23;;;;;;;0.69;70.07;98505.53;5042488;28;20206;-71
2022/01/12 09:00:36;;;;;;;12.47;11.17;;;;;;;0.53;68.96;98505.94;5044186;28;20266;-70
2022/01/12 09:03:04;;;;;;;12.17;10.97;;;;;;;0.57;69.50;98502.38;5044597;28;20200;-71
2022/01/12 09:05:31;;;;;;;12.77;11.47;;;;;;;0.57;69.23;98516.22;5052632;28;20231;-69
2022/01/12 09:07:59;;;;;;;16.63;12.80;;;;;;;0.56;69.36;98516.28;5073879;28;20185;-70
2022/01/12 09:10:26;;;;;;;12.63;11.13;;;;;;;0.54;69.06;98508.50;5077870;28;20215;-70
2022/01/12 09:12:53;;;;;;;12.93;11.53;;;;;;;0.57;69.75;98511.03;5050841;28;20211;-70
2022/01/12 09:15:24;;;;;;;12.53;11.07;;;;;;;0.54;69.99;98511.09;5052367;28;20310;-69
2022/01/12 09:17:53;;;;;;;13.77;11.50;;;;;;;0.56;69.70;98513.69;5047488;28;20206;-70
2022/01/12 09:20:20;;;;;;;14.43;11.93;;;;;;;0.83;69.89;98503.44;5055629;28;20204;-69
2022/01/12 09:22:46;;;;;;;12.63;11.20;;;;;;;0.87;69.20;98493.81;5037670;28;20645;-69
2022/01/12 09:25:13;;;;;;;13.30;11.90;;;;;;;0.84;69.20;98494.75;5037811;28;20209;-71
2022/01/12 09:27:40;;;;;;;14.67;11.83;;;;;;;1.00;69.00;98489.97;5044402;28;20219;-70
2022/01/12 09:30:10;;;;;;;13.80;11.67;;;;;;;0.94;68.97;98485.81;5050738;28;20544;-70
2022/01/12 09:32:37;;;;;;;14.37;11.50;;;;;;;0.98;68.16;98483.97;5053555;28;20517;-70
2022/01/12 09:35:06;;;;;;;12.57;11.23;;;;;;;1.05;67.84;98489.88;5057281;28;20209;-71
2022/01/12 09:37:33;;;;;;;13.80;12.03;;;;;;;1.70;66.98;98485.47;5048527;28;20500;-70
2022/01/12 09:39:59;;;;;;;14.63;12.53;;;;;;;1.74;65.20;98485.31;5056371;28;20213;-70
2022/01/12 09:42:26;;;;;;;12.50;11.30;;;;;;;1.61;66.30;98503.97;5056740;28;20199;-70
2022/01/12 09:44:53;;;;;;;14.00;12.00;;;;;;;1.57;65.73;98508.41;5048505;28;20612;-70
2022/01/12 09:47:19;;;;;;;13.17;10.80;;;;;;;1.53;66.05;98514.63;5056120;28;20229;-70
2022/01/12 09:49:47;;;;;;;12.70;11.40;;;;;;;1.39;66.04;98509.78;5056448;28;20209;-70
2022/01/12 09:52:16;;;;;;;13.03;11.50;;;;;;;1.24;66.98;98506.75;5056325;28;20202;-70
2022/01/12 09:54:42;;;;;;;12.87;10.80;;;;;;;1.12;66.85;98509.66;5057765;28;20308;-71
2022/01/12 09:57:09;;;;;;;13.97;10.77;;;;;;;1.35;67.30;98515.97;5055910;28;20546;-71
2022/01/12 09:59:36;;;;;;;12.90;11.57;;;;;;;1.44;67.11;98510.53;5055122;28;20273;-69
2022/01/12 10:02:03;;;;;;;13.03;10.80;;;;;;;1.47;67.47;98510.44;5053394;28;20227;-70
2022/01/12 10:04:31;;;;;;;13.37;11.93;;;;;;;1.42;66.78;98511.44;5056001;28;20206;-70
2022/01/12 10:06:59;;;;;;;18.20;14.67;;;;;;;1.46;66.57;98507.84;5056071;28;20679;-69
2022/01/12 10:09:39;;;;;;;13.63;12.20;;;;;;;1.49;66.46;98505.16;5036300;28;20218;-70
2022/01/12 10:12:16;;;;;;;80.10;21.90;;;;;;;1.95;66.26;98499.50;5050247;28;20204;-71
2022/01/12 10:14:45;;;;;;;16.63;11.50;;;;;;;1.76;65.71;98495.72;5056739;28;20513;-70
2022/01/12 10:17:13;;;;;;;11.77;10.63;;;;;;;1.69;64.91;98483.75;5056300;28;20216;-69
2022/01/12 10:19:41;;;;;;;12.53;10.97;;;;;;;1.92;65.13;98469.13;5047167;28;20558;-69
2022/01/12 10:22:10;;;;;;;12.47;11.17;;;;;;;3.00;62.69;98469.16;5045437;28;20214;-70
2022/01/12 10:24:39;;;;;;;11.73;10.50;;;;;;;3.39;60.37;98466.03;5045323;28;20580;-71
2022/01/12 10:27:12;;;;;;;12.37;11.13;;;;;;;3.05;60.66;98458.50;5039488;28;20242;-70
2022/01/12 10:29:38;;;;;;;11.63;10.20;;;;;;;3.08;60.11;98442.75;5053324;28;20199;-70
2022/01/12 10:32:08;;;;;;;10.73;9.67;;;;;;;2.73;60.71;98450.94;5055177;28;20214;-70
2022/01/12 10:34:38;;;;;;;12.53;11.23;;;;;;;2.54;61.08;98442.00;5043246;28;20204;-70
2022/01/12 10:37:07;;;;;;;11.00;9.90;;;;;;;2.27;61.51;98441.97;5054385;28;20206;-70
2022/01/12 10:39:33;;;;;;;11.10;10.00;;;;;;;1.93;62.11;98447.38;5036305;28;20218;-72
2022/01/12 10:42:03;;;;;;;10.97;9.87;;;;;;;1.76;62.78;98449.63;5049231;28;20230;-72
2022/01/12 10:44:32;;;;;;;11.33;10.13;;;;;;;1.85;63.09;98446.75;5054369;28;20209;-71
2022/01/12 10:47:10;;;;;;;12.63;10.53;;;;;;;2.28;62.93;98442.81;5046619;28;20638;-70
2022/01/12 10:49:38;;;;;;;11.67;10.43;;;;;;;2.78;61.29;98438.56;5054007;28;20210;-72
2022/01/12 10:52:08;;;;;;;12.07;9.97;;;;;;;2.92;60.77;98444.16;5058870;28;20210;-73
2022/01/12 10:54:43;;;;;;;13.23;10.27;;;;;;;3.36;59.86;98458.31;5061064;28;20241;-74
2022/01/12 10:57:22;;;;;;;11.00;9.90;;;;;;;3.85;58.66;98453.00;5060802;28;20194;-73
2022/01/12 11:00:08;;;;;;;11.83;10.63;;;;;;;4.04;58.11;98452.31;5056120;28;20256;-73
2022/01/12 11:02:35;;;;;;;11.07;9.97;;;;;;;4.06;57.90;98455.69;5042679;28;20669;-72
2022/01/12 11:05:05;;;;;;;11.27;9.73;;;;;;;3.75;57.99;98459.50;5043592;28;20342;-71
2022/01/12 11:07:31;;;;;;;11.73;10.47;;;;;;;3.34;60.08;98463.59;5070178;28;20222;-72
2022/01/12 11:09:59;;;;;;;11.53;10.33;;;;;;;3.21;59.53;98464.94;5076689;28;20221;-73
2022/01/12 11:12:27;;;;;;;11.07;9.93;;;;;;;3.11;61.32;98460.94;5059170;28;20227;-72
2022/01/12 11:14:53;;;;;;;12.57;10.70;;;;;;;3.13;61.20;98451.28;5058125;28;20571;-71
2022/01/12 11:17:20;;;;;;;13.43;11.57;;;;;;;2.67;61.99;98446.75;5078361;28;20194;-72
2022/01/12 11:19:53;;;;;;;13.00;11.37;;;;;;;2.59;61.27;98443.53;5070832;28;20293;-72
2022/01/12 11:22:28;;;;;;;13.23;11.37;;;;;;;2.44;62.50;98441.44;5053666;28;20211;-71
2022/01/12 11:24:55;;;;;;;12.27;10.97;;;;;;;2.30;62.60;98446.25;5039165;28;20217;-72
2022/01/12 11:27:22;;;;;;;12.17;10.87;;;;;;;2.37;62.87;98452.97;5038555;28;20244;-69
2022/01/12 11:29:50;;;;;;;12.73;11.43;;;;;;;2.37;63.00;98445.16;5039919;28;20235;-71
2022/01/12 11:32:22;;;;;;;12.87;11.07;;;;;;;2.34;63.33;98456.53;5039053;28;20221;-69
2022/01/12 11:34:59;;;;;;;13.07;11.10;;;;;;;1.91;62.83;98458.75;5038481;28;20221;-69
2022/01/12 11:37:25;;;;;;;12.23;10.93;;;;;;;1.97;62.89;98448.13;5046621;28;20198;-71
2022/01/12 11:39:52;;;;;;;12.00;10.67;;;;;;;2.14;63.42;98445.00;5057995;28;20212;-68
2022/01/12 11:42:18;;;;;;;12.00;10.80;;;;;;;2.04;63.08;98443.59;5058637;28;20214;-70
2022/01/12 11:44:45;;;;;;;12.57;11.13;;;;;;;1.89;63.12;98445.75;5058874;28;20206;-70
2022/01/12 11:47:15;;;;;;;12.60;11.30;;;;;;;1.86;64.25;98435.41;5057912;28;20756;-71
2022/01/12 11:49:44;;;;;;;12.97;11.63;;;;;;;2.02;63.44;98450.63;5058216;28;20281;-71
2022/01/12 11:52:15;;;;;;;12.17;10.87;;;;;;;2.24;63.10;98459.47;5057980;28;20212;-70
2022/01/12 11:54:45;;;;;;;13.57;10.43;;;;;;;2.35;62.28;98458.25;5053651;28;20208;-69
2022/01/12 11:57:18;;;;;;;11.50;10.40;;;;;;;2.60;61.46;98460.06;5051096;28;20215;-69
2022/01/12 11:59:53;;;;;;;11.70;10.50;;;;;;;2.58;61.54;98461.88;5058389;28;20324;-69
2022/01/12 12:02:32;;;;;;;13.10;10.70;;;;;;;2.92;62.13;98463.31;5050838;28;20241;-70
2022/01/12 12:05:00;;;;;;;12.20;10.57;;;;;;;3.13;60.12;98460.88;5048789;28;20208;-69
2022/01/12 12:07:28;;;;;;;11.73;10.53;;;;;;;3.35;59.59;98457.47;5058069;28;20227;-68
2022/01/12 12:09:57;;;;;;;11.77;10.57;;;;;;;3.22;58.56;98456.19;5057478;28;20528;-69
2022/01/12 12:12:25;;;;;;;11.20;10.10;;;;;;;3.41;58.89;98467.69;5057730;28;20540;-70
2022/01/12 12:14:53;;;;;;;12.10;10.83;;;;;;;3.57;58.51;98462.78;5057179;28;20630;-69
2022/01/12 12:17:22;;;;;;;12.10;10.33;;;;;;;3.39;59.15;98459.06;5045770;28;20549;-70
2022/01/12 12:19:50;;;;;;;12.00;10.80;;;;;;;3.48;58.20;98457.84;5046689;28;20208;-70
2022/01/12 12:22:19;;;;;;;14.27;11.50;;;;;;;3.59;59.17;98449.63;5048366;28;20214;-69
2022/01/12 12:24:48;;;;;;;12.40;11.10;;;;;;;3.77;58.17;98449.81;5058635;28;20214;-69
2022/01/12 12:27:18;;;;;;;11.80;10.60;;;;;;;3.66;58.04;98446.72;5056823;28;20549;-70
2022/01/12 12:29:45;;;;;;;12.23;10.80;;;;;;;3.79;58.14;98447.16;5057317;28;20498;-70
2022/01/12 12:32:13;;;;;;;12.40;10.83;;;;;;;3.58;58.24;98443.53;5057465;28;20214;-70
2022/01/12 12:34:41;;;;;;;12.67;11.30;;;;;;;3.74;57.57;98439.47;5057612;28;20238;-70